Time;durP1;ratioP1;P1;durP2;ratioP2;P2;SDS_P1;SDS_P2;PMS_P1;PMS_P2;Temp;Humidity;BMP_temperature;BMP_pressure;BME280_temperature;BME280_humidity;BME280_pressure;Samples;Min_cycle;Max_cycle;Signal;HPM_P1;HPM_P2
2021/11/12 00:03:57;;;;;;;64.82;32.78;;;12.80;99.90;;;13.06;79.07;102100.72;5113134;28;20447;-68
2021/11/12 00:12:20;;;;;;;70.00;35.72;;;12.90;99.90;;;13.24;78.17;102100.84;5129245;28;20576;-68
2021/11/12 00:14:51;;;;;;;63.00;33.47;;;12.90;99.90;;;13.23;77.68;102085.75;5146567;27;20492;-68
2021/11/12 00:17:22;;;;;;;74.30;33.97;;;13.00;99.90;;;13.34;77.73;102106.19;5113307;28;20096;-66
2021/11/12 00:19:51;;;;;;;65.22;35.25;;;13.00;99.90;;;13.35;77.27;102100.00;5129166;28;20447;-68
2021/11/12 00:22:23;;;;;;;70.18;34.90;;;13.10;99.90;;;13.41;77.48;102092.00;5113381;28;20040;-67
2021/11/12 00:24:53;;;;;;;69.05;35.50;;;13.10;99.90;;;13.41;77.58;102089.34;5113095;28;20477;-68
2021/11/12 00:27:23;;;;;;;70.72;35.20;;;13.10;99.90;;;13.38;77.40;102075.19;5112978;28;20477;-68
2021/11/12 00:29:58;;;;;;;73.18;35.10;;;13.10;99.90;;;13.49;77.37;102076.97;5113319;28;20043;-68
2021/11/12 00:32:37;;;;;;;70.88;36.00;;;13.20;99.90;;;13.35;77.68;102080.50;5112927;28;20111;-66
2021/11/12 00:35:23;;;;;;;81.13;37.53;;;13.10;99.90;;;13.31;77.48;102070.72;5112963;28;20051;-68
2021/11/12 00:38:01;;;;;;;92.88;40.25;;;13.10;99.90;;;13.25;77.79;102063.63;5113131;28;20047;-68
2021/11/12 00:40:32;;;;;;;85.47;38.45;;;13.10;99.90;;;13.27;77.58;102072.50;5112962;28;20139;-68
2021/11/12 00:43:11;;;;;;;93.40;40.38;;;13.00;99.90;;;13.25;77.33;102060.97;5113055;28;20044;-67
2021/11/12 00:45:48;;;;;;;84.47;37.53;;;13.00;99.90;;;13.26;77.11;102065.38;5128955;28;20051;-67
2021/11/12 00:48:21;;;;;;;85.13;38.60;;;13.00;99.90;;;13.28;76.86;102063.63;5114096;28;20044;-67
2021/11/12 00:51:08;;;;;;;79.25;35.95;;;13.00;99.90;;;13.27;76.29;102066.28;5116459;28;20481;-67
2021/11/12 00:53:43;;;;;;;69.28;33.55;;;13.00;99.90;;;13.28;76.29;102058.31;5116524;28;20047;-67
2021/11/12 00:56:12;;;;;;;67.00;32.85;;;13.00;99.90;;;13.29;76.08;102054.78;5116762;28;20481;-68
2021/11/12 00:58:40;;;;;;;60.92;30.70;;;13.00;99.90;;;13.33;75.84;102053.91;5116491;27;20446;-68
2021/11/12 01:01:09;;;;;;;56.28;28.85;;;13.10;99.90;;;13.25;75.76;102058.31;5116193;27;20101;-67
2021/11/12 01:03:37;;;;;;;54.65;29.30;;;13.00;99.90;;;13.28;75.94;102049.44;5116631;27;20054;-68
2021/11/12 01:06:06;;;;;;;53.83;28.60;;;13.00;99.90;;;13.21;75.66;102039.69;5116339;28;20085;-68
2021/11/12 01:08:35;;;;;;;46.80;27.52;;;13.00;99.90;;;13.29;75.46;102048.59;5116529;27;20492;-68
2021/11/12 01:11:06;;;;;;;47.38;27.08;;;13.00;99.90;;;13.29;75.17;102048.59;5116525;28;20047;-67
2021/11/12 01:13:35;;;;;;;;;;;13.00;99.90;;;13.27;74.56;102040.59;5116728;28;20397;-67
2021/11/12 01:16:04;;;;;;;40.47;24.52;;;13.10;99.90;;;13.15;74.69;102035.25;5116256;28;19926;-67
2021/11/12 01:18:35;;;;;;;39.55;23.92;;;12.90;99.90;;;13.10;74.27;102031.69;5116358;28;20437;-67
2021/11/12 01:21:06;;;;;;;36.00;22.80;;;12.90;99.90;;;13.10;74.46;102030.81;5116179;28;20377;-67
2021/11/12 01:23:35;;;;;;;37.88;24.08;;;12.80;99.90;;;12.89;74.21;101993.50;5116001;28;20044;-67
2021/11/12 01:26:05;;;;;;;34.45;22.52;;;12.80;99.90;;;12.93;74.20;102005.91;5116204;27;20047;-67
2021/11/12 01:28:35;;;;;;;32.45;20.70;;;12.80;99.90;;;12.94;73.90;102013.88;5115998;28;20044;-68
2021/11/12 01:31:03;;;;;;;32.95;21.25;;;12.70;99.90;;;12.97;73.76;102021.84;5115874;28;20493;-67
2021/11/12 01:33:32;;;;;;;35.08;22.00;;;12.70;99.90;;;12.96;74.00;102021.84;5115834;28;20047;-67
2021/11/12 01:36:09;;;;;;;36.45;22.75;;;12.70;99.90;;;12.89;74.22;102020.91;5115983;28;20396;-67
2021/11/12 01:38:37;;;;;;;37.60;22.73;;;12.70;99.90;;;12.91;74.55;102019.16;5115705;28;20040;-67
2021/11/12 01:41:07;;;;;;;36.50;24.33;;;12.60;99.90;;;12.86;74.88;102015.59;5115684;28;20505;-67
2021/11/12 01:43:40;;;;;;;36.73;24.37;;;12.60;99.90;;;12.86;75.60;102020.03;5115473;28;20135;-68
2021/11/12 01:49:25;;;;;;;37.25;24.35;;;12.60;99.90;;;12.99;75.35;102020.09;5067448;28;20047;-67
2021/11/12 01:51:56;;;;;;;37.55;25.50;;;12.70;99.90;;;12.85;75.26;101989.94;5115464;27;20496;-68
2021/11/12 01:54:41;;;;;;;36.28;24.02;;;12.80;99.90;;;13.06;75.06;102006.00;5115607;28;20096;-67
2021/11/12 01:57:32;;;;;;;38.50;23.55;;;12.80;99.90;;;13.08;75.15;102009.56;5131465;27;20043;-67
2021/11/12 02:00:01;;;;;;;36.15;23.00;;;12.90;99.90;;;13.11;74.51;102000.69;5115088;27;20047;-67
2021/11/12 02:02:31;;;;;;;;;;;12.90;99.90;;;13.27;74.39;102006.06;5116023;28;20063;-67
2021/11/12 02:04:59;;;;;;;34.92;22.42;;;13.00;99.90;;;13.29;74.45;102001.66;5115058;28;19920;-67
2021/11/12 02:07:29;;;;;;;35.70;23.85;;;13.00;99.90;;;13.08;74.96;102006.91;5115051;27;20202;-67
2021/11/12 02:09:57;;;;;;;37.30;22.58;;;12.80;99.90;;;12.91;74.95;102000.56;5115304;27;20051;-67
2021/11/12 02:12:30;;;;;;;33.88;22.73;;;12.60;99.90;;;12.69;75.51;102002.25;5114963;28;20374;-67
2021/11/12 02:14:59;;;;;;;33.45;23.30;;;12.40;99.90;;;12.62;75.97;101994.22;5115085;27;20051;-67
2021/11/12 02:17:30;;;;;;;36.60;24.65;;;12.30;99.90;;;12.57;76.01;101965.03;5115437;28;20135;-67
2021/11/12 02:20:06;;;;;;;37.95;24.38;;;12.40;99.90;;;12.86;75.43;101998.78;5115147;28;20492;-67
2021/11/12 02:22:37;;;;;;;34.55;23.17;;;12.40;99.90;;;12.82;75.43;101991.69;5114890;28;20096;-67
2021/11/12 02:25:10;;;;;;;38.58;24.50;;;12.40;99.90;;;12.50;75.97;101951.72;5114777;27;20496;-67
2021/11/12 02:27:44;;;;;;;38.22;24.25;;;12.30;99.90;;;12.40;76.83;101966.72;5114764;28;20073;-67
2021/11/12 02:30:21;;;;;;;39.17;26.88;;;12.10;99.90;;;12.02;77.90;101943.47;5114646;28;20096;-67
2021/11/12 02:33:00;;;;;;;42.78;26.38;;;11.90;99.90;;;11.81;79.18;101964.53;5115270;28;20047;-67
2021/11/12 02:35:31;;;;;;;38.92;26.10;;;11.70;99.90;;;11.88;79.43;101959.28;5114588;28;20054;-67
2021/11/12 02:38:04;;;;;;;42.90;26.92;;;11.60;99.90;;;11.95;79.62;101955.78;5115109;28;20039;-67
2021/11/12 02:40:34;;;;;;;40.50;28.08;;;11.60;99.90;;;11.97;79.53;101966.41;5115031;28;20105;-67
2021/11/12 02:43:04;;;;;;;43.28;28.55;;;11.70;99.90;;;11.90;79.88;101964.59;5114480;28;20089;-67
2021/11/12 02:45:36;;;;;;;45.78;28.52;;;11.70;99.90;;;11.88;80.41;101958.38;5114272;28;20467;-67
2021/11/12 02:48:06;;;;;;;49.03;30.85;;;11.70;99.90;;;11.92;80.92;101954.88;5114869;28;20104;-67
2021/11/12 02:50:34;;;;;;;46.60;29.52;;;11.70;99.90;;;11.68;81.32;101950.28;5114503;28;20451;-67
2021/11/12 02:53:09;;;;;;;43.92;28.75;;;11.50;99.90;;;11.49;81.86;101943.91;5114281;28;20040;-67
2021/11/12 02:55:38;;;;;;;50.13;29.60;;;11.30;99.90;;;11.27;83.19;101931.31;5114447;28;20047;-67
2021/11/12 02:58:07;;;;;;;46.45;29.58;;;11.10;99.90;;;11.21;83.69;101925.06;5113023;28;20134;-67
2021/11/12 03:00:38;;;;;;;53.58;30.90;;;11.00;99.90;;;11.16;84.26;101930.34;5114058;28;20040;-67
2021/11/12 03:03:07;;;;;;;49.70;30.75;;;10.90;99.90;;;11.11;84.67;101932.03;5114355;28;20059;-67
2021/11/12 03:05:37;;;;;;;53.22;30.40;;;10.90;99.90;;;11.14;84.96;101932.06;5113852;28;20067;-67
2021/11/12 03:08:07;;;;;;;50.85;31.27;;;10.90;99.90;;;11.13;84.77;101922.34;5114583;28;20130;-67
2021/11/12 03:10:36;;;;;;;50.85;31.52;;;10.90;99.90;;;11.08;84.85;101894.94;5113960;28;20048;-67
2021/11/12 03:13:04;;;;;;;51.90;31.13;;;10.90;99.90;;;11.27;84.47;101912.78;5114093;28;20142;-67
2021/11/12 03:15:33;;;;;;;55.92;32.28;;;11.00;99.90;;;11.38;83.95;101904.94;5114011;28;20067;-67
2021/11/12 03:18:02;;;;;;;52.50;31.55;;;11.10;99.90;;;11.42;84.12;101907.59;5113688;28;20546;-66
2021/11/12 03:20:31;;;;;;;50.58;31.50;;;11.20;99.90;;;11.21;83.81;101910.06;5113633;28;20044;-67
2021/11/12 03:23:03;;;;;;;57.60;34.08;;;11.10;99.90;;;11.06;84.58;101898.44;5114199;28;20130;-67
2021/11/12 03:25:38;;;;;;;58.67;33.53;;;10.90;99.90;;;10.89;85.00;101895.63;5113607;28;20043;-67
2021/11/12 03:28:17;;;;;;;57.13;33.10;;;10.70;99.90;;;11.03;84.80;101886.06;5113663;28;20112;-67
2021/11/12 03:31:16;;;;;;;58.07;34.00;;;10.80;99.90;;;10.97;84.65;101878.06;5113860;28;20102;-67
2021/11/12 04:01:52;;;;;;;59.10;34.80;;;10.40;99.90;;;10.71;85.59;101811.63;5113267;28;20108;-66
2021/11/12 04:04:33;;;;;;;63.25;34.13;;;10.60;99.90;;;10.01;85.38;101733.25;5113650;28;20437;-67
2021/11/12 04:07:10;;;;;;;57.33;34.60;;;10.50;99.90;;;10.42;85.97;101793.66;5129199;28;20048;-67
2021/11/12 04:18:06;;;;;;;57.42;35.22;;;10.30;99.90;;;10.39;86.67;101809.50;5113003;28;20028;-67
2021/11/12 04:20:47;;;;;;;56.72;34.33;;;10.20;99.90;;;10.43;85.92;101813.97;5113252;28;20044;-67
2021/11/12 04:40:09;;;;;;;48.00;31.92;;;10.40;99.90;;;10.51;83.71;101813.16;5116860;28;20043;-67
2021/11/12 05:10:28;;;;;;;61.92;36.85;;;9.70;99.90;;;9.59;85.25;101777.63;5116195;28;20048;-67
2021/11/12 05:43:34;;;;;;;60.50;38.97;;;9.40;99.90;;;9.50;84.92;101777.50;5115554;28;20500;-66
2021/11/12 05:43:53;;;;;;;57.97;37.22;;;9.50;99.90;;;9.45;84.71;101746.59;5115960;28;20047;-67
2021/11/12 05:46:24;;;;;;;58.72;37.35;;;9.40;99.90;;;9.31;85.02;101741.09;5115416;28;20112;-67
2021/11/12 05:51:56;;;;;;;62.35;38.50;;;9.10;99.90;;;8.87;85.93;101711.41;5115518;28;20047;-67
2021/11/12 05:57:13;;;;;;;65.18;40.50;;;8.60;99.90;;;8.54;88.13;101675.69;5115361;28;20055;-67
2021/11/12 05:59:43;;;;;;;65.03;40.73;;;8.40;99.90;;;8.35;89.04;101673.59;5115627;28;20132;-67
2021/11/12 06:02:12;;;;;;;67.43;43.22;;;8.30;99.90;;;8.44;89.40;101679.03;5131252;27;20047;-66
2021/11/12 06:04:40;;;;;;;67.68;42.15;;;8.30;99.90;;;8.56;89.72;101693.31;5114908;28;20122;-66
2021/11/12 06:07:09;;;;;;;70.30;42.45;;;8.40;99.90;;;8.75;88.83;101691.88;5115315;28;20143;-66
2021/11/12 06:09:39;;;;;;;67.40;43.00;;;8.50;99.90;;;8.54;89.21;101688.84;5115184;28;20058;-66
2021/11/12 06:12:11;;;;;;;74.20;41.78;;;8.40;99.90;;;8.52;89.59;101685.31;5115019;28;20054;-66
2021/11/12 06:14:40;;;;;;;71.97;42.83;;;8.40;99.90;;;8.60;89.49;101681.94;5115009;28;20063;-66
2021/11/12 06:17:08;;;;;;;71.72;43.55;;;8.40;99.90;;;8.62;89.65;101674.06;5114939;28;20044;-66
2021/11/12 06:19:37;;;;;;;69.53;43.65;;;8.40;99.90;;;8.70;89.36;101670.69;5114862;28;20039;-66
2021/11/12 06:22:06;;;;;;;77.57;44.95;;;8.40;99.90;;;8.81;88.81;101678.75;5114694;28;20512;-66
2021/11/12 06:24:35;;;;;;;80.57;46.22;;;8.60;99.90;;;8.70;88.47;101680.34;5114779;28;20043;-66
2021/11/12 06:27:06;;;;;;;80.07;44.85;;;8.60;99.90;;;8.66;88.05;101666.22;5114958;28;20067;-66
2021/11/12 06:29:35;;;;;;;78.13;45.40;;;8.60;99.90;;;8.67;87.54;101678.53;5114780;28;20040;-66
2021/11/12 06:32:06;;;;;;;77.55;44.50;;;8.60;99.90;;;8.68;88.13;101676.78;5114660;28;20051;-66
2021/11/12 06:34:34;;;;;;;79.07;45.17;;;8.70;99.90;;;8.70;87.35;101689.16;5114633;28;20040;-66
2021/11/12 06:37:03;;;;;;;76.40;44.47;;;8.70;99.90;;;8.69;87.26;101665.41;5114694;28;20039;-66
2021/11/12 06:39:32;;;;;;;75.25;45.40;;;8.80;99.90;;;8.94;86.67;101691.31;5114435;28;20488;-66
2021/11/12 06:42:03;;;;;;;75.47;43.25;;;8.90;99.90;;;8.82;86.39;101678.81;5114586;28;20104;-66
2021/11/12 06:44:54;;;;;;;;;;;8.80;99.90;;;8.90;86.44;101681.56;5114769;28;20485;-66
2021/11/12 06:50:13;;;;;;;85.78;46.63;;;8.70;99.90;;;8.71;87.21;101663.69;5114595;28;20151;-66
2021/11/12 06:52:45;;;;;;;86.65;48.17;;;8.60;99.90;;;8.67;87.83;101651.31;5114425;28;20500;-66
2021/11/12 06:55:16;;;;;;;91.95;49.55;;;8.60;99.90;;;8.47;88.21;101650.97;5114213;28;20101;-66
2021/11/12 06:57:46;;;;;;;88.40;49.60;;;8.40;99.90;;;8.48;88.63;101662.41;5114476;28;20084;-67
2021/11/12 07:00:20;;;;;;;94.33;49.03;;;8.30;99.90;;;8.39;89.07;101655.22;5114116;28;20099;-66
2021/11/12 07:02:51;;;;;;;98.97;52.22;;;8.30;99.90;;;8.31;89.25;101651.56;5114235;28;20059;-66
2021/11/12 07:05:19;;;;;;;92.80;49.55;;;8.20;99.90;;;8.45;89.66;101652.69;5114289;28;20059;-66
2021/11/12 07:07:48;;;;;;;89.43;51.20;;;8.20;99.90;;;8.63;89.13;101660.88;5112625;28;20039;-67
2021/11/12 07:10:17;;;;;;;96.53;51.33;;;8.50;99.90;;;8.75;88.20;101666.38;5113657;28;20040;-67
2021/11/12 07:12:45;;;;;;;100.50;52.42;;;8.60;99.90;;;8.64;87.78;101669.69;5113585;28;20056;-67
2021/11/12 07:15:18;;;;;;;96.97;51.00;;;8.60;99.90;;;8.55;88.54;101667.81;5113952;28;20039;-67
2021/11/12 07:17:47;;;;;;;94.22;50.25;;;8.40;99.90;;;8.37;88.60;101658.69;5113960;28;20082;-67
2021/11/12 07:20:16;;;;;;;96.65;52.75;;;8.30;99.90;;;8.51;89.06;101660.72;5113700;28;20043;-67
2021/11/12 07:22:44;;;;;;;88.95;50.80;;;8.30;99.90;;;8.41;88.84;101647.34;5113894;27;20047;-66
2021/11/12 07:25:13;;;;;;;97.05;52.72;;;8.30;99.90;;;8.45;88.74;101633.34;5113537;28;20067;-67
2021/11/12 07:27:41;;;;;;;92.60;51.20;;;8.40;99.90;;;8.53;89.03;101632.63;5113357;28;20046;-66
2021/11/12 07:30:19;;;;;;;97.00;52.45;;;8.40;99.90;;;8.49;88.73;101633.44;5113495;28;20503;-66
2021/11/12 07:32:50;;;;;;;96.93;50.30;;;8.30;99.90;;;8.55;89.26;101632.66;5113537;28;20048;-66
2021/11/12 07:35:23;;;;;;;90.20;49.05;;;8.40;99.90;;;8.73;88.75;101627.66;5113452;28;20047;-66
2021/11/12 07:37:58;;;;;;;84.13;47.88;;;8.60;99.90;;;8.79;87.80;101636.53;5113349;28;20047;-67
2021/11/12 07:40:37;;;;;;;85.20;47.95;;;8.70;99.90;;;8.62;87.78;101664.41;5111995;28;20126;-67
2021/11/12 07:43:22;;;;;;;88.93;50.05;;;8.60;99.90;;;8.46;88.69;101629.88;5113372;28;20048;-66
2021/11/12 07:46:07;;;;;;;88.10;48.67;;;8.30;99.90;;;8.49;89.63;101624.63;5113312;28;20105;-67
2021/11/12 07:48:35;;;;;;;92.05;51.25;;;8.30;99.90;;;8.50;89.97;101634.31;5113374;28;20053;-66
2021/11/12 07:51:04;;;;;;;94.93;51.83;;;8.40;99.90;;;8.40;90.03;101604.28;5112157;28;20126;-67
2021/11/12 07:53:32;;;;;;;94.45;51.92;;;8.30;99.90;;;8.58;90.16;101619.50;5113223;28;20040;-69
2021/11/12 07:56:05;;;;;;;92.65;52.28;;;8.40;99.90;;;8.58;89.98;101622.13;5113251;28;20051;-66
2021/11/12 07:58:34;;;;;;;86.97;48.92;;;8.40;99.90;;;8.48;89.81;101596.50;5113811;28;20147;-66
2021/11/12 08:01:04;;;;;;;92.93;51.70;;;8.50;99.90;;;8.67;90.33;101620.53;5112959;28;20096;-69
2021/11/12 08:03:34;;;;;;;92.45;53.90;;;8.50;99.90;;;8.65;89.82;101610.84;5112855;28;20048;-67
2021/11/12 08:06:04;;;;;;;90.03;52.65;;;8.50;99.90;;;8.58;89.96;101609.84;5112623;28;20039;-68
2021/11/12 08:08:35;;;;;;;;;;;8.50;99.90;;;8.67;90.42;101607.34;5113230;28;20062;-66
2021/11/12 08:11:10;;;;;;;96.80;51.28;;;8.50;99.90;;;8.81;90.10;101612.81;5112632;28;19927;-67
2021/11/12 08:13:42;;;;;;;97.38;53.90;;;8.60;99.90;;;9.22;89.87;101608.09;5112884;28;20039;-66
2021/11/12 08:19:20;;;;;;;86.60;51.78;;;9.20;99.90;;;9.64;87.18;101612.16;5112245;28;20060;-68
2021/11/12 08:21:55;;;;;;;86.50;50.88;;;9.50;99.90;;;10.07;85.75;101613.47;5112967;28;20044;-67
2021/11/12 08:27:26;;;;;;;85.53;47.78;;;10.10;99.90;;;10.41;82.56;101591.81;5110724;27;20055;-70
2021/11/12 08:32:53;;;;;;;88.75;51.83;;;10.40;99.90;;;9.67;81.52;101480.13;5112739;28;20044;-65
2021/11/12 08:35:35;;;;;;;89.13;51.92;;;10.30;99.90;;;9.86;82.03;101537.53;5112748;28;20047;-64
2021/11/12 08:38:13;;;;;;;86.97;52.00;;;10.10;99.90;;;9.93;82.87;101597.50;5112856;28;20825;-64
2021/11/12 08:40:53;;;;;;;98.90;56.00;;;9.90;99.90;;;10.03;83.51;101590.53;5112947;28;20043;-64
2021/11/12 08:43:26;;;;;;;96.88;56.25;;;9.90;99.90;;;10.01;83.38;101571.13;5113039;28;20048;-64
2021/11/12 08:46:11;;;;;;;90.75;53.13;;;9.90;99.90;;;10.00;83.00;101574.66;5112485;28;20040;-64
2021/11/12 08:48:49;;;;;;;90.10;53.90;;;9.90;99.90;;;9.86;83.07;101571.91;5112196;28;20036;-64
2021/11/12 08:51:19;;;;;;;90.25;52.78;;;9.80;99.90;;;9.98;82.88;101563.19;5112616;28;20488;-68
2021/11/12 08:53:49;;;;;;;85.88;53.47;;;9.80;99.90;;;10.07;83.56;101570.28;5112915;28;20109;-69
2021/11/12 08:56:19;;;;;;;89.22;53.10;;;9.80;99.90;;;10.52;82.45;101574.25;5112594;28;20051;-68
2021/11/12 08:58:51;;;;;;;87.65;51.20;;;10.30;99.90;;;9.13;81.33;101367.84;5111507;28;20047;-64
2021/11/12 09:01:20;;;;;;;84.22;50.97;;;10.10;99.90;;;10.10;80.98;101560.69;5112512;28;20076;-64
2021/11/12 09:03:51;;;;;;;83.97;49.85;;;10.10;99.90;;;10.29;81.36;101557.31;5113113;28;20123;-64
2021/11/12 09:06:19;;;;;;;86.40;48.92;;;10.10;99.90;;;9.84;82.71;101572.75;5112688;28;20039;-64
2021/11/12 09:08:48;;;;;;;94.22;52.78;;;9.80;99.90;;;10.01;82.53;101560.56;5112918;28;20507;-64
2021/11/12 09:11:16;;;;;;;94.78;54.60;;;9.80;99.90;;;9.85;83.37;101556.91;5116102;28;20039;-64
2021/11/12 09:13:48;;;;;;;93.53;53.05;;;9.70;99.90;;;10.07;83.39;101543.88;5116606;28;20028;-64
2021/11/12 09:16:17;;;;;;;93.43;51.70;;;9.80;99.90;;;9.02;83.69;101463.59;5116167;28;20047;-64
2021/11/12 09:18:49;;;;;;;102.68;55.50;;;9.50;99.90;;;9.41;84.32;101552.91;5115782;28;20044;-63
2021/11/12 09:21:18;;;;;;;98.18;54.08;;;9.30;99.90;;;9.43;85.56;101550.28;5131870;27;20052;-64
2021/11/12 09:23:47;;;;;;;98.00;53.88;;;9.30;99.90;;;9.46;85.28;101539.78;5131541;27;20135;-64
2021/11/12 09:26:15;;;;;;;104.53;54.60;;;9.30;99.90;;;9.58;83.97;101542.56;5115808;28;20043;-64
2021/11/12 09:28:44;;;;;;;104.90;54.05;;;9.40;99.90;;;9.91;84.43;101541.09;5115908;28;20396;-65
2021/11/12 09:31:12;;;;;;;102.55;54.78;;;9.60;99.90;;;10.07;82.73;101520.97;5115499;28;20065;-64
2021/11/12 09:33:41;;;;;;;104.03;52.45;;;10.00;99.90;;;10.26;81.84;101543.22;5115973;28;20070;-64
2021/11/12 09:36:11;;;;;;;97.63;51.47;;;10.10;99.90;;;10.24;81.33;101524.66;5115677;28;20093;-64
2021/11/12 09:38:41;;;;;;;101.47;52.47;;;10.20;99.90;;;10.69;80.82;101526.72;5115648;28;20144;-64
2021/11/12 09:41:11;;;;;;;92.47;51.05;;;10.50;99.90;;;10.88;79.64;101533.88;5131763;27;20051;-65
2021/11/12 09:43:40;;;;;;;78.97;45.33;;;10.70;99.90;;;10.82;78.54;101531.19;5115599;28;20759;-64
2021/11/12 09:46:10;;;;;;;80.95;45.33;;;10.70;99.90;;;10.21;78.09;101416.25;5115319;28;20458;-64
2021/11/12 09:48:40;;;;;;;82.85;47.53;;;10.80;99.90;;;10.59;78.35;101514.31;5131477;27;20055;-64
2021/11/12 09:51:11;;;;;;;85.97;44.65;;;10.50;99.90;;;10.44;79.39;101511.59;5115435;28;20455;-64
2021/11/12 09:53:41;;;;;;;83.68;48.78;;;10.40;99.90;;;10.42;79.67;101516.88;5115426;28;20047;-64
2021/11/12 09:56:11;;;;;;;88.68;48.17;;;10.30;99.90;;;10.12;80.83;101521.06;5131358;27;20051;-64
2021/11/12 09:58:39;;;;;;;92.97;51.28;;;10.10;99.90;;;9.55;82.06;101509.06;5115736;28;20121;-64
2021/11/12 10:01:08;;;;;;;91.70;49.95;;;9.60;99.90;;;9.65;83.70;101507.41;5115183;28;20130;-66
2021/11/12 10:03:44;;;;;;;92.47;51.00;;;9.40;99.90;;;9.53;83.04;101487.03;5115545;27;20447;-66
2021/11/12 10:06:24;;;;;;;89.07;50.45;;;9.50;99.90;;;10.04;83.21;101500.69;5115140;28;20111;-65
2021/11/12 10:08:55;;;;;;;90.78;48.85;;;9.80;99.90;;;10.18;81.55;101486.75;5115228;28;20050;-65
2021/11/12 10:11:28;;;;;;;80.38;47.83;;;10.00;99.90;;;10.16;81.07;101501.72;5115399;28;20036;-64
2021/11/12 10:14:12;;;;;;;84.45;46.83;;;10.00;99.90;;;9.88;82.23;101464.47;5115245;28;20468;-65
2021/11/12 10:16:42;;;;;;;83.22;45.05;;;9.90;99.90;;;10.21;81.89;101499.97;5114843;28;20536;-64
2021/11/12 10:19:15;;;;;;;80.10;45.35;;;10.00;99.90;;;10.47;80.98;101504.53;5115059;27;20380;-64
2021/11/12 10:21:47;;;;;;;75.32;45.22;;;10.30;99.90;;;10.58;79.70;101496.69;5114872;27;20093;-64
2021/11/12 10:24:19;;;;;;;74.88;43.67;;;10.40;99.90;;;10.72;78.69;101484.44;5114676;28;20044;-64
2021/11/12 10:26:50;;;;;;;73.57;43.28;;;10.60;99.90;;;10.88;78.83;101487.13;5114789;28;20040;-64
2021/11/12 10:29:25;;;;;;;75.82;45.30;;;10.80;99.90;;;10.44;79.23;101472.81;5114653;28;20534;-64
2021/11/12 10:31:57;;;;;;;75.68;45.58;;;10.40;99.90;;;10.84;79.07;101471.22;5114095;28;20089;-64
2021/11/12 10:34:29;;;;;;;65.68;39.20;;;10.70;99.90;;;11.04;78.67;101466.91;5114639;28;20058;-64
2021/11/12 10:37:04;;;;;;;61.13;37.92;;;10.90;99.90;;;11.28;77.48;101469.63;5114635;28;20039;-65
2021/11/12 10:39:40;;;;;;;69.55;41.28;;;11.10;99.90;;;11.48;76.15;101474.94;5114807;28;20048;-64
2021/11/12 10:42:14;;;;;;;64.65;40.03;;;11.30;99.90;;;11.48;76.05;101465.22;5114462;28;20050;-65
2021/11/12 10:44:46;;;;;;;63.47;41.03;;;11.40;99.90;;;11.45;76.34;101459.94;5114460;28;20043;-65
2021/11/12 10:47:17;;;;;;;60.72;37.58;;;11.30;99.90;;;10.82;76.93;101349.50;5114098;27;20047;-64
2021/11/12 10:49:48;;;;;;;56.97;35.60;;;11.30;99.90;;;11.61;76.08;101440.50;5114480;28;20048;-67
2021/11/12 10:52:21;;;;;;;55.00;36.13;;;11.50;99.90;;;11.78;74.98;101452.06;5114503;27;20040;-65
2021/11/12 10:54:54;;;;;;;55.78;35.45;;;11.60;99.90;;;11.95;74.18;101432.59;5114254;28;20085;-64
2021/11/12 10:57:29;;;;;;;59.40;36.35;;;11.80;99.90;;;12.04;73.65;101438.75;5114632;28;20438;-65
2021/11/12 11:00:16;;;;;;;56.50;36.15;;;11.90;99.90;;;12.23;73.89;101421.06;5114087;28;20097;-65
2021/11/12 11:02:48;;;;;;;53.88;34.40;;;12.10;99.90;;;12.16;73.75;101420.19;5113553;28;20048;-65
2021/11/12 11:05:21;;;;;;;54.30;34.00;;;12.10;99.90;;;12.17;73.42;101421.06;5113699;28;20105;-64
2021/11/12 11:07:56;;;;;;;51.55;32.70;;;12.10;99.90;;;11.90;73.62;101411.41;5113121;28;20048;-64
2021/11/12 11:10:29;;;;;;;52.85;32.58;;;11.90;99.90;;;11.73;74.29;101403.44;5113968;28;20047;-66
2021/11/12 11:13:03;;;;;;;54.40;34.67;;;11.70;99.90;;;11.56;75.09;101369.84;5113627;28;20048;-67
2021/11/12 11:15:36;;;;;;;56.13;34.88;;;11.50;99.90;;;11.47;75.23;101393.72;5113868;28;20035;-67
2021/11/12 11:18:25;;;;;;;57.55;37.83;;;11.40;99.90;;;11.64;76.09;101390.19;5113661;28;20043;-66
2021/11/12 11:21:03;;;;;;;59.88;36.97;;;11.50;99.90;;;11.70;75.99;101387.56;5113625;28;20072;-66
2021/11/12 11:23:45;;;;;;;56.92;37.15;;;11.60;99.90;;;11.46;75.85;101387.53;5114184;28;20070;-66
2021/11/12 11:26:17;;;;;;;55.30;36.13;;;11.40;99.90;;;11.33;76.93;101388.41;5113967;28;20075;-67
2021/11/12 11:28:49;;;;;;;56.15;36.15;;;11.30;99.90;;;11.37;77.12;101378.69;5113552;28;20039;-66
2021/11/12 11:31:19;;;;;;;56.47;34.60;;;11.30;99.90;;;11.39;77.77;101372.53;5113486;28;20100;-66
2021/11/12 11:33:51;;;;;;;54.35;35.35;;;11.30;99.90;;;11.49;77.06;101361.06;5113279;28;20032;-66
2021/11/12 11:36:23;;;;;;;60.00;36.05;;;11.40;99.90;;;11.56;76.62;101352.22;5113337;28;20484;-64
2021/11/12 11:38:55;;;;;;;52.80;33.85;;;11.50;99.90;;;11.59;77.23;101324.84;5113756;28;20524;-64
2021/11/12 11:41:26;;;;;;;56.60;35.28;;;11.60;99.90;;;11.61;76.50;101350.41;5113623;28;20054;-64
2021/11/12 11:43:56;;;;;;;53.28;34.75;;;11.60;99.90;;;11.29;77.29;101333.69;5113349;28;20047;-64
2021/11/12 11:46:27;;;;;;;52.93;35.27;;;11.30;99.90;;;11.21;78.01;101335.44;5113319;28;20040;-64
2021/11/12 11:48:58;;;;;;;55.28;35.65;;;11.10;99.90;;;11.39;78.02;101342.50;5113196;28;20085;-64
2021/11/12 11:51:30;;;;;;;46.45;32.60;;;11.20;99.90;;;11.47;77.50;101325.72;5113347;28;20108;-64
2021/11/12 11:54:06;;;;;;;42.55;28.98;;;11.30;99.90;;;11.77;76.21;101330.13;5113363;28;20097;-64
2021/11/12 11:56:36;;;;;;;45.60;28.45;;;11.60;99.90;;;11.84;74.79;101325.69;5112844;28;20040;-64
2021/11/12 11:59:11;;;;;;;53.28;33.70;;;11.70;99.90;;;11.93;76.02;101325.66;5113006;28;20561;-64
2021/11/12 12:01:46;;;;;;;51.58;34.30;;;11.90;99.90;;;11.81;76.38;101313.31;5113114;27;20085;-65
2021/11/12 12:04:46;;;;;;;40.83;27.80;;;11.70;99.90;;;11.83;75.24;101308.06;5113368;28;20074;-64
2021/11/12 12:07:39;;;;;;;41.22;24.98;;;11.70;99.90;;;11.93;73.22;101302.69;5113105;28;20073;-64
2021/11/12 12:10:27;;;;;;;41.70;25.88;;;11.80;99.90;;;12.03;72.75;101291.19;5112911;28;20047;-64
2021/11/12 12:13:06;;;;;;;38.97;25.17;;;11.90;99.90;;;12.11;72.70;101292.03;5113606;28;20071;-66
2021/11/12 12:15:47;;;;;;;38.13;27.05;;;12.00;99.90;;;12.13;73.84;101294.69;5113184;28;20040;-66
2021/11/12 12:18:28;;;;;;;42.25;28.85;;;11.90;99.90;;;11.98;74.63;101281.50;5111937;28;20048;-67
2021/11/12 12:21:53;;;;;;;51.67;28.95;;;11.90;99.90;;;11.91;74.10;101285.03;5113312;28;20039;-64
2021/11/12 12:31:14;;;;;;;40.22;25.23;;;12.00;99.90;;;12.08;72.69;101268.16;5128775;28;20044;-64
2021/11/12 13:20:46;;;;;;;36.15;22.48;;;12.20;99.90;;;12.18;70.69;101181.50;5069383;28;20090;-65
2021/11/12 13:23:32;;;;;;;33.58;21.60;;;12.10;99.90;;;12.18;70.28;101170.88;5085140;28;20413;-65
2021/11/12 13:26:04;;;;;;;33.55;20.58;;;12.10;99.90;;;12.18;70.72;101155.88;5069187;28;20036;-64
2021/11/12 13:28:35;;;;;;;32.10;20.65;;;12.10;99.90;;;12.22;70.14;101162.91;5069692;28;20041;-63
2021/11/12 13:31:08;;;;;;;30.85;20.55;;;12.10;99.90;;;12.29;69.95;101161.13;5069064;28;20045;-65
2021/11/12 13:33:45;;;;;;;31.67;19.92;;;12.10;99.90;;;12.38;69.96;101155.75;5069313;28;20048;-64
2021/11/12 13:36:21;;;;;;;31.05;20.73;;;12.20;99.90;;;12.44;69.55;101155.69;5068978;28;20486;-64
2021/11/12 13:38:55;;;;;;;32.90;20.80;;;12.30;99.90;;;12.34;69.28;101117.75;5068934;28;20075;-64
2021/11/12 13:41:27;;;;;;;31.08;20.73;;;12.30;99.90;;;12.47;69.82;101145.03;5068767;28;20135;-63